createdAt,value
2022-10-26T00:03:00.460Z,100489.56
2022-10-26T00:08:02.247Z,100483.84
2022-10-26T00:13:05.293Z,100492.34
2022-10-26T00:18:06.830Z,100490.84
2022-10-26T00:23:08.595Z,100494.25
2022-10-26T00:28:10.110Z,100488.22
2022-10-26T00:33:13.518Z,100496.59
2022-10-26T00:38:15.266Z,100501.72
2022-10-26T00:43:34.390Z,100495.50
2022-10-26T00:48:38.680Z,100498.78
2022-10-26T00:53:40.347Z,100492.22
2022-10-26T00:58:42.419Z,100494.25
2022-10-26T01:03:45.034Z,100489.44
2022-10-26T01:08:46.639Z,100497.47
2022-10-26T01:13:48.785Z,100497.97
2022-10-26T01:18:52.926Z,100493.22
2022-10-26T01:24:09.407Z,100496.06
2022-10-26T01:29:40.315Z,100485.00
2022-10-26T01:34:48.944Z,100490.16
2022-10-26T01:40:16.774Z,100493.88
2022-10-26T01:45:18.803Z,100483.88
2022-10-26T01:50:20.712Z,100477.59
2022-10-26T01:55:40.966Z,100483.59
2022-10-26T02:00:52.311Z,100483.69
2022-10-26T02:06:23.263Z,100485.16
2022-10-26T02:11:37.219Z,100483.59
2022-10-26T02:16:49.565Z,100484.84
2022-10-26T02:21:55.065Z,100487.66
2022-10-26T02:26:57.071Z,100478.56
2022-10-26T02:31:59.491Z,100472.22
2022-10-26T02:37:02.421Z,100464.16
2022-10-26T02:42:05.595Z,100470.53
2022-10-26T02:47:07.211Z,100467.69
2022-10-26T02:52:18.588Z,100462.50
2022-10-26T02:57:40.223Z,100469.50
2022-10-26T03:02:46.171Z,100467.72
2022-10-26T03:07:50.020Z,100462.13
2022-10-26T03:12:52.406Z,100472.19
2022-10-26T03:17:54.026Z,100469.59
2022-10-26T03:22:57.051Z,100460.41
2022-10-26T03:28:00.480Z,100467.31
2022-10-26T03:33:01.976Z,100458.88
2022-10-26T03:38:03.526Z,100469.41
2022-10-26T03:43:05.054Z,100468.78
2022-10-26T03:48:06.601Z,100468.25
2022-10-26T03:53:08.502Z,100473.06
2022-10-26T03:58:10.087Z,100468.94
2022-10-26T04:03:11.582Z,100471.88
2022-10-26T04:08:13.165Z,100469.81
2022-10-26T04:13:14.738Z,100476.72
2022-10-26T04:18:16.314Z,100473.47
2022-10-26T04:23:18.948Z,100472.38
2022-10-26T04:28:21.486Z,100470.47
2022-10-26T04:33:23.014Z,100459.56
2022-10-26T04:38:24.494Z,100462.22
2022-10-26T04:43:26.005Z,100464.72
2022-10-26T04:48:27.521Z,100464.88
2022-10-26T04:53:29.015Z,100451.59
2022-10-26T04:58:30.715Z,100458.06
2022-10-26T05:03:32.214Z,100447.88
2022-10-26T05:08:33.731Z,100457.00
2022-10-26T05:13:35.211Z,100450.41
2022-10-26T05:18:36.874Z,100447.28
2022-10-26T05:23:38.405Z,100445.88
2022-10-26T05:28:39.884Z,100439.47
2022-10-26T05:33:41.384Z,100454.16
2022-10-26T05:38:42.876Z,100445.06
2022-10-26T05:43:47.285Z,100458.56
2022-10-26T05:48:48.778Z,100457.81
2022-10-26T05:53:54.278Z,100465.44
2022-10-26T05:58:56.035Z,100466.97
2022-10-26T06:04:07.649Z,100464.03
2022-10-26T06:09:11.450Z,100466.09
2022-10-26T06:14:13.174Z,100467.69
2022-10-26T06:19:17.301Z,100482.63
2022-10-26T06:24:41.502Z,100493.59
2022-10-26T06:30:02.178Z,100497.13
2022-10-26T06:35:25.300Z,100507.78
2022-10-26T06:40:27.027Z,100508.50
2022-10-26T06:45:29.069Z,100509.28
2022-10-26T06:50:38.493Z,100509.28
2022-10-26T06:55:44.640Z,100500.25
2022-10-26T07:00:48.575Z,100508.31
2022-10-26T07:05:50.137Z,100506.91
2022-10-26T07:10:51.695Z,100518.44
2022-10-26T07:15:53.239Z,100524.31
2022-10-26T07:20:54.768Z,100521.00
2022-10-26T07:25:59.535Z,100518.25
2022-10-26T07:31:01.171Z,100509.69
2022-10-26T07:36:02.854Z,100522.09
2022-10-26T07:41:04.901Z,100520.88
2022-10-26T07:46:06.406Z,100527.63
2022-10-26T07:51:08.381Z,100523.81
2022-10-26T07:56:10.694Z,100522.13
2022-10-26T08:01:13.962Z,100526.84
2022-10-26T08:06:15.531Z,100529.44
2022-10-26T08:11:17.460Z,100531.28
2022-10-26T08:16:19.159Z,100524.13
2022-10-26T08:21:35.738Z,100525.50
2022-10-26T08:26:38.017Z,100519.22
2022-10-26T08:31:39.550Z,100516.22
2022-10-26T08:36:41.122Z,100515.59
2022-10-26T08:41:46.864Z,100523.50
2022-10-26T08:46:53.459Z,100518.88
2022-10-26T08:52:00.460Z,100516.75
2022-10-26T08:57:10.234Z,100513.78
2022-10-26T09:02:16.528Z,100503.13
2022-10-26T09:07:25.940Z,100512.22
2022-10-26T09:12:47.776Z,100509.59
2022-10-26T09:18:26.414Z,100508.44
2022-10-26T09:23:48.142Z,100508.88
2022-10-26T09:28:49.745Z,100507.03
2022-10-26T09:33:51.718Z,100500.19
2022-10-26T09:39:17.590Z,100502.38
2022-10-26T09:44:34.929Z,100509.59
2022-10-26T09:49:48.660Z,100505.59
2022-10-26T09:54:50.292Z,100503.94
2022-10-26T09:59:52.603Z,100505.00
2022-10-26T10:04:54.238Z,100503.66
2022-10-26T10:10:27.836Z,100501.47
2022-10-26T10:15:29.332Z,100505.69
2022-10-26T10:20:32.462Z,100510.41
2022-10-26T10:25:36.217Z,100503.88
2022-10-26T10:30:37.997Z,100496.81
2022-10-26T10:35:48.338Z,100495.97
2022-10-26T10:41:02.536Z,100487.19
2022-10-26T10:46:04.191Z,100499.00
2022-10-26T10:51:12.999Z,100496.28
2022-10-26T10:56:34.156Z,100489.56
2022-10-26T11:01:40.762Z,100484.84
2022-10-26T11:06:43.571Z,100489.88
2022-10-26T11:11:48.279Z,100473.84
2022-10-26T11:16:56.192Z,100480.88
2022-10-26T11:21:57.729Z,100481.03
2022-10-26T11:27:18.114Z,100479.28
2022-10-26T11:32:23.161Z,100485.16
2022-10-26T11:37:37.658Z,100470.59
2022-10-26T11:42:51.258Z,100476.53
2022-10-26T11:47:57.464Z,100471.69
2022-10-26T11:53:09.362Z,100480.41
2022-10-26T11:58:11.762Z,100485.78
2022-10-26T12:03:17.422Z,100493.69
2022-10-26T12:08:24.598Z,100488.06
2022-10-26T12:13:47.849Z,100487.13
2022-10-26T12:18:56.768Z,100486.53
2022-10-26T12:24:04.959Z,100489.97
2022-10-26T12:29:06.373Z,100488.00
2022-10-26T12:34:15.793Z,100484.78
2022-10-26T12:39:40.608Z,100492.72
2022-10-26T12:44:48.342Z,100495.38
2022-10-26T12:50:19.687Z,100489.81
2022-10-26T12:55:51.319Z,100498.81
2022-10-26T13:01:08.716Z,100493.22
2022-10-26T13:06:41.190Z,100486.94
2022-10-26T13:11:51.621Z,100492.66
2022-10-26T13:16:53.277Z,100496.31
2022-10-26T13:21:58.337Z,100503.72
2022-10-26T13:27:05.577Z,100504.72
2022-10-26T13:32:07.110Z,100502.75
2022-10-26T13:37:21.692Z,100502.34
2022-10-26T13:42:27.728Z,100495.47
2022-10-26T13:47:33.425Z,100499.88
2022-10-26T13:52:41.365Z,100509.09
2022-10-26T13:57:44.486Z,100511.97
2022-10-26T14:02:46.012Z,100513.84
2022-10-26T14:08:00.113Z,100518.22
2022-10-26T14:13:07.566Z,100515.31
2022-10-26T14:18:15.985Z,100511.75
2022-10-26T14:23:47.291Z,100519.81
2022-10-26T14:28:51.565Z,100516.66
2022-10-26T14:33:54.383Z,100506.00
2022-10-26T14:39:04.505Z,100522.78
2022-10-26T14:44:16.636Z,100527.16
2022-10-26T14:49:25.068Z,100529.22
2022-10-26T14:54:28.308Z,100543.09
2022-10-26T14:59:31.159Z,100531.91
2022-10-26T15:04:37.599Z,100547.81
2022-10-26T15:09:41.747Z,100542.94
2022-10-26T15:14:43.385Z,100554.31
2022-10-26T15:19:45.201Z,100549.63
2022-10-26T15:24:51.827Z,100541.22
2022-10-26T15:30:16.545Z,100558.53
2022-10-26T15:35:18.009Z,100551.81
2022-10-26T15:40:19.872Z,100556.63
2022-10-26T15:45:26.860Z,100559.03
2022-10-26T15:50:28.884Z,100558.75
2022-10-26T15:55:30.607Z,100569.25
2022-10-26T16:00:32.075Z,100571.34
2022-10-26T16:05:33.596Z,100591.25
2022-10-26T16:10:35.107Z,100593.16
2022-10-26T16:15:37.009Z,100596.88
2022-10-26T16:20:38.615Z,100590.50
2022-10-26T16:25:43.938Z,100595.41
2022-10-26T16:30:45.580Z,100600.69
2022-10-26T16:35:55.454Z,100601.50
2022-10-26T16:41:17.066Z,100602.72
2022-10-26T16:46:20.200Z,100608.28
2022-10-26T16:51:23.639Z,100620.06
2022-10-26T16:56:27.715Z,100623.50
2022-10-26T17:01:29.449Z,100624.16
2022-10-26T17:06:31.039Z,100622.47
2022-10-26T17:11:32.628Z,100632.47
2022-10-26T17:16:36.986Z,100632.94
2022-10-26T17:21:38.557Z,100647.97
2022-10-26T17:26:40.687Z,100652.66
2022-10-26T17:31:42.230Z,100660.28
2022-10-26T17:36:43.725Z,100671.91
2022-10-26T17:41:45.556Z,100685.91
2022-10-26T17:46:47.145Z,100685.41
2022-10-26T17:51:48.698Z,100701.06
2022-10-26T17:56:50.211Z,100704.94
2022-10-26T18:01:51.841Z,100701.41
2022-10-26T18:06:53.501Z,100709.16
2022-10-26T18:11:56.063Z,100723.31
2022-10-26T18:16:57.731Z,100737.13
2022-10-26T18:22:00.447Z,100731.88
2022-10-26T18:27:01.970Z,100730.03
2022-10-26T18:32:03.555Z,100736.78
2022-10-26T18:37:05.077Z,100751.63
2022-10-26T18:42:06.580Z,100755.13
2022-10-26T18:47:08.089Z,100757.16
2022-10-26T18:52:09.578Z,100769.78
2022-10-26T18:57:11.114Z,100756.97
2022-10-26T19:02:15.405Z,100776.19
2022-10-26T19:07:17.002Z,100781.72
2022-10-26T19:12:18.559Z,100786.09
2022-10-26T19:17:21.947Z,100793.19
2022-10-26T19:22:23.434Z,100791.50
2022-10-26T19:27:24.928Z,100801.94
2022-10-26T19:32:29.499Z,100812.34
2022-10-26T19:37:31.178Z,100821.91
2022-10-26T19:42:32.738Z,100829.13
2022-10-26T19:47:34.321Z,100839.34
2022-10-26T19:52:36.484Z,100835.88
2022-10-26T19:57:38.115Z,100844.97
2022-10-26T20:02:39.648Z,100843.19
2022-10-26T20:07:41.129Z,100842.34
2022-10-26T20:12:42.621Z,100856.59
2022-10-26T20:17:44.092Z,100865.56
2022-10-26T20:22:45.747Z,100863.34
2022-10-26T20:27:48.103Z,100871.88
2022-10-26T20:32:49.799Z,100875.19
2022-10-26T20:37:52.291Z,100881.94
2022-10-26T20:42:54.979Z,100884.25
2022-10-26T20:47:58.295Z,100885.22
2022-10-26T20:53:15.556Z,100889.13
2022-10-26T20:58:19.761Z,100894.19
2022-10-26T21:03:21.359Z,100897.72
2022-10-26T21:08:23.001Z,100902.44
2022-10-26T21:13:24.610Z,100909.28
2022-10-26T21:18:26.274Z,100903.94
2022-10-26T21:23:31.716Z,100906.91
2022-10-26T21:28:35.583Z,100909.47
2022-10-26T21:33:37.503Z,100912.13
2022-10-26T21:38:40.530Z,100921.44
2022-10-26T21:43:43.563Z,100916.66
2022-10-26T21:48:45.745Z,100920.91
2022-10-26T21:53:48.075Z,100929.16
2022-10-26T21:58:49.669Z,100929.22
2022-10-26T22:03:51.276Z,100934.47
2022-10-26T22:08:55.899Z,100937.25
2022-10-26T22:13:57.490Z,100952.91
2022-10-26T22:19:05.407Z,100946.44
2022-10-26T22:24:07.638Z,100933.41
2022-10-26T22:29:09.164Z,100939.47
2022-10-26T22:34:15.735Z,100935.47
2022-10-26T22:39:17.893Z,100933.47
2022-10-26T22:44:19.391Z,100938.78
2022-10-26T22:49:20.864Z,100944.00
2022-10-26T22:54:22.366Z,100949.59
2022-10-26T22:59:23.840Z,100950.53
2022-10-26T23:04:25.356Z,100952.38
2022-10-26T23:09:26.857Z,100968.09
2022-10-26T23:14:28.411Z,100970.00
2022-10-26T23:19:29.912Z,100983.19
2022-10-26T23:24:31.425Z,100978.97
2022-10-26T23:29:33.060Z,100991.78
2022-10-26T23:34:34.589Z,100989.09
2022-10-26T23:39:36.106Z,100983.06
2022-10-26T23:44:37.638Z,100981.56
2022-10-26T23:49:39.124Z,100988.91
2022-10-26T23:54:40.804Z,100997.94
2022-10-26T23:59:42.361Z,100994.88
